sensor_id;sensor_type;location;lat;lon;timestamp;temperature;humidity
78611;SHT30;67932;50.474;4.436;2023-09-07T00:00:44;21.37;66.72
78611;SHT30;67932;50.474;4.436;2023-09-07T00:03:11;21.32;67.44
78611;SHT30;67932;50.474;4.436;2023-09-07T00:05:37;21.45;67.68
78611;SHT30;67932;50.474;4.436;2023-09-07T00:08:04;21.55;66.82
78611;SHT30;67932;50.474;4.436;2023-09-07T00:10:32;21.53;65.74
78611;SHT30;67932;50.474;4.436;2023-09-07T00:13:04;21.51;64.91
78611;SHT30;67932;50.474;4.436;2023-09-07T00:15:34;21.51;65.11
78611;SHT30;67932;50.474;4.436;2023-09-07T00:18:01;21.52;64.38
78611;SHT30;67932;50.474;4.436;2023-09-07T00:20:27;21.55;63.76
78611;SHT30;67932;50.474;4.436;2023-09-07T00:22:53;21.49;64.23
78611;SHT30;67932;50.474;4.436;2023-09-07T00:25:20;21.56;63.40
78611;SHT30;67932;50.474;4.436;2023-09-07T00:27:46;21.53;63.22
78611;SHT30;67932;50.474;4.436;2023-09-07T00:30:13;21.49;63.35
78611;SHT30;67932;50.474;4.436;2023-09-07T00:32:40;21.43;63.26
78611;SHT30;67932;50.474;4.436;2023-09-07T00:35:07;21.37;64.27
78611;SHT30;67932;50.474;4.436;2023-09-07T00:37:33;21.37;63.66
78611;SHT30;67932;50.474;4.436;2023-09-07T00:40:00;21.35;63.80
78611;SHT30;67932;50.474;4.436;2023-09-07T00:42:26;21.25;64.91
78611;SHT30;67932;50.474;4.436;2023-09-07T00:44:53;21.24;64.70
78611;SHT30;67932;50.474;4.436;2023-09-07T00:47:19;21.11;65.87
78611;SHT30;67932;50.474;4.436;2023-09-07T00:49:46;21.05;66.37
78611;SHT30;67932;50.474;4.436;2023-09-07T00:52:12;21.04;66.80
78611;SHT30;67932;50.474;4.436;2023-09-07T00:54:39;20.95;67.23
78611;SHT30;67932;50.474;4.436;2023-09-07T00:57:06;20.87;68.11
78611;SHT30;67932;50.474;4.436;2023-09-07T00:59:34;20.81;68.39
78611;SHT30;67932;50.474;4.436;2023-09-07T01:02:00;20.66;68.94
78611;SHT30;67932;50.474;4.436;2023-09-07T01:04:26;20.57;69.50
78611;SHT30;67932;50.474;4.436;2023-09-07T01:06:59;20.46;69.66
78611;SHT30;67932;50.474;4.436;2023-09-07T01:09:31;20.43;69.27
78611;SHT30;67932;50.474;4.436;2023-09-07T01:11:58;20.41;68.93
78611;SHT30;67932;50.474;4.436;2023-09-07T01:14:24;20.37;68.66
78611;SHT30;67932;50.474;4.436;2023-09-07T01:16:51;20.34;68.85
78611;SHT30;67932;50.474;4.436;2023-09-07T01:19:17;20.30;68.65
78611;SHT30;67932;50.474;4.436;2023-09-07T01:21:43;20.26;68.46
78611;SHT30;67932;50.474;4.436;2023-09-07T01:24:11;20.29;68.46
78611;SHT30;67932;50.474;4.436;2023-09-07T01:26:38;20.32;67.76
78611;SHT30;67932;50.474;4.436;2023-09-07T01:29:06;20.37;67.38
78611;SHT30;67932;50.474;4.436;2023-09-07T01:31:35;20.34;67.98
78611;SHT30;67932;50.474;4.436;2023-09-07T01:34:02;20.30;68.07
78611;SHT30;67932;50.474;4.436;2023-09-07T01:36:28;20.32;67.99
78611;SHT30;67932;50.474;4.436;2023-09-07T01:38:55;20.27;68.13
78611;SHT30;67932;50.474;4.436;2023-09-07T01:41:21;20.26;68.25
78611;SHT30;67932;50.474;4.436;2023-09-07T01:43:47;20.14;68.78
78611;SHT30;67932;50.474;4.436;2023-09-07T01:46:14;20.09;69.28
78611;SHT30;67932;50.474;4.436;2023-09-07T01:48:40;20.08;69.05
78611;SHT30;67932;50.474;4.436;2023-09-07T01:51:08;19.99;69.27
78611;SHT30;67932;50.474;4.436;2023-09-07T01:53:34;19.96;69.87
78611;SHT30;67932;50.474;4.436;2023-09-07T01:56:01;19.93;69.39
78611;SHT30;67932;50.474;4.436;2023-09-07T01:58:27;19.96;69.40
78611;SHT30;67932;50.474;4.436;2023-09-07T02:00:57;19.94;69.42
78611;SHT30;67932;50.474;4.436;2023-09-07T02:03:25;19.87;69.72
78611;SHT30;67932;50.474;4.436;2023-09-07T02:05:52;19.83;69.99
78611;SHT30;67932;50.474;4.436;2023-09-07T02:08:19;19.82;69.72
78611;SHT30;67932;50.474;4.436;2023-09-07T02:10:45;19.76;70.71
78611;SHT30;67932;50.474;4.436;2023-09-07T02:13:11;19.73;71.02
78611;SHT30;67932;50.474;4.436;2023-09-07T02:15:40;19.65;71.21
78611;SHT30;67932;50.474;4.436;2023-09-07T02:18:06;19.59;71.20
78611;SHT30;67932;50.474;4.436;2023-09-07T02:20:33;19.54;71.25
78611;SHT30;67932;50.474;4.436;2023-09-07T02:23:00;19.59;70.38
78611;SHT30;67932;50.474;4.436;2023-09-07T02:25:26;19.55;70.86
78611;SHT30;67932;50.474;4.436;2023-09-07T02:27:53;19.51;71.21
78611;SHT30;67932;50.474;4.436;2023-09-07T02:30:20;19.54;70.88
78611;SHT30;67932;50.474;4.436;2023-09-07T02:32:46;19.47;71.53
78611;SHT30;67932;50.474;4.436;2023-09-07T02:35:13;19.45;71.47
78611;SHT30;67932;50.474;4.436;2023-09-07T02:37:39;19.45;71.35
78611;SHT30;67932;50.474;4.436;2023-09-07T02:40:06;19.47;71.25
78611;SHT30;67932;50.474;4.436;2023-09-07T02:42:33;19.48;70.48
78611;SHT30;67932;50.474;4.436;2023-09-07T02:45:00;19.49;70.58
78611;SHT30;67932;50.474;4.436;2023-09-07T02:47:26;19.48;71.68
78611;SHT30;67932;50.474;4.436;2023-09-07T02:49:53;19.45;70.93
78611;SHT30;67932;50.474;4.436;2023-09-07T02:52:20;19.42;71.06
78611;SHT30;67932;50.474;4.436;2023-09-07T02:54:46;19.42;71.22
78611;SHT30;67932;50.474;4.436;2023-09-07T02:57:12;19.38;71.48
78611;SHT30;67932;50.474;4.436;2023-09-07T02:59:38;19.44;70.32
78611;SHT30;67932;50.474;4.436;2023-09-07T03:02:05;19.48;70.34
78611;SHT30;67932;50.474;4.436;2023-09-07T03:04:32;19.47;70.57
78611;SHT30;67932;50.474;4.436;2023-09-07T03:07:00;19.38;70.29
78611;SHT30;67932;50.474;4.436;2023-09-07T03:09:26;19.39;71.07
78611;SHT30;67932;50.474;4.436;2023-09-07T03:11:52;19.36;70.83
78611;SHT30;67932;50.474;4.436;2023-09-07T03:14:18;19.22;71.08
78611;SHT30;67932;50.474;4.436;2023-09-07T03:16:45;19.10;70.46
78611;SHT30;67932;50.474;4.436;2023-09-07T03:19:11;19.14;70.60
78611;SHT30;67932;50.474;4.436;2023-09-07T03:21:37;19.18;70.99
78611;SHT30;67932;50.474;4.436;2023-09-07T03:24:04;19.12;71.27
78611;SHT30;67932;50.474;4.436;2023-09-07T03:26:30;19.05;71.59
78611;SHT30;67932;50.474;4.436;2023-09-07T03:28:56;19.08;71.67
78611;SHT30;67932;50.474;4.436;2023-09-07T03:31:23;19.12;71.58
78611;SHT30;67932;50.474;4.436;2023-09-07T03:33:50;19.07;71.50
78611;SHT30;67932;50.474;4.436;2023-09-07T03:36:16;19.10;71.80
78611;SHT30;67932;50.474;4.436;2023-09-07T03:38:43;19.07;72.00
78611;SHT30;67932;50.474;4.436;2023-09-07T03:41:09;19.07;71.84
78611;SHT30;67932;50.474;4.436;2023-09-07T03:43:35;19.00;71.85
78611;SHT30;67932;50.474;4.436;2023-09-07T03:46:01;18.97;72.43
78611;SHT30;67932;50.474;4.436;2023-09-07T03:48:28;19.01;72.27
78611;SHT30;67932;50.474;4.436;2023-09-07T03:50:54;18.95;71.93
78611;SHT30;67932;50.474;4.436;2023-09-07T03:53:20;19.01;72.23
78611;SHT30;67932;50.474;4.436;2023-09-07T03:55:46;19.00;71.91
78611;SHT30;67932;50.474;4.436;2023-09-07T03:58:13;18.97;72.51
78611;SHT30;67932;50.474;4.436;2023-09-07T04:00:40;18.94;72.33
78611;SHT30;67932;50.474;4.436;2023-09-07T04:03:07;18.95;72.60
78611;SHT30;67932;50.474;4.436;2023-09-07T04:05:36;18.94;72.16
78611;SHT30;67932;50.474;4.436;2023-09-07T04:08:02;18.97;72.16
78611;SHT30;67932;50.474;4.436;2023-09-07T04:10:29;18.95;72.63
78611;SHT30;67932;50.474;4.436;2023-09-07T04:12:55;18.98;72.04
78611;SHT30;67932;50.474;4.436;2023-09-07T04:15:22;18.95;72.54
78611;SHT30;67932;50.474;4.436;2023-09-07T04:17:49;18.83;72.17
78611;SHT30;67932;50.474;4.436;2023-09-07T04:20:16;18.87;72.15
78611;SHT30;67932;50.474;4.436;2023-09-07T04:22:43;18.84;72.59
78611;SHT30;67932;50.474;4.436;2023-09-07T04:25:09;18.91;72.28
78611;SHT30;67932;50.474;4.436;2023-09-07T04:27:35;18.90;72.43
78611;SHT30;67932;50.474;4.436;2023-09-07T04:30:02;18.90;72.77
78611;SHT30;67932;50.474;4.436;2023-09-07T04:32:28;18.85;72.62
78611;SHT30;67932;50.474;4.436;2023-09-07T04:34:55;18.83;72.42
78611;SHT30;67932;50.474;4.436;2023-09-07T04:37:22;18.85;72.19
78611;SHT30;67932;50.474;4.436;2023-09-07T04:39:52;18.85;72.09
78611;SHT30;67932;50.474;4.436;2023-09-07T04:42:20;18.80;72.23
78611;SHT30;67932;50.474;4.436;2023-09-07T04:44:50;18.80;73.41
78611;SHT30;67932;50.474;4.436;2023-09-07T04:47:16;18.67;72.74
78611;SHT30;67932;50.474;4.436;2023-09-07T04:49:47;18.54;72.75
78611;SHT30;67932;50.474;4.436;2023-09-07T04:52:14;18.37;73.19
78611;SHT30;67932;50.474;4.436;2023-09-07T04:54:40;18.32;73.72
78611;SHT30;67932;50.474;4.436;2023-09-07T04:57:06;18.25;73.93
78611;SHT30;67932;50.474;4.436;2023-09-07T04:59:33;18.19;74.86
78611;SHT30;67932;50.474;4.436;2023-09-07T05:02:00;18.17;74.57
78611;SHT30;67932;50.474;4.436;2023-09-07T05:04:27;18.19;74.81
78611;SHT30;67932;50.474;4.436;2023-09-07T05:06:55;18.28;76.48
78611;SHT30;67932;50.474;4.436;2023-09-07T05:09:22;18.33;73.98
78611;SHT30;67932;50.474;4.436;2023-09-07T05:11:49;18.34;74.86
78611;SHT30;67932;50.474;4.436;2023-09-07T05:14:16;18.44;74.88
78611;SHT30;67932;50.474;4.436;2023-09-07T05:16:45;18.53;73.98
78611;SHT30;67932;50.474;4.436;2023-09-07T05:19:11;18.60;72.88
78611;SHT30;67932;50.474;4.436;2023-09-07T05:21:37;18.64;72.58
78611;SHT30;67932;50.474;4.436;2023-09-07T05:24:04;18.65;72.73
78611;SHT30;67932;50.474;4.436;2023-09-07T05:26:30;18.53;72.98
78611;SHT30;67932;50.474;4.436;2023-09-07T05:28:57;18.52;73.03
78611;SHT30;67932;50.474;4.436;2023-09-07T05:31:23;18.44;73.51
78611;SHT30;67932;50.474;4.436;2023-09-07T05:33:49;18.50;73.48
78611;SHT30;67932;50.474;4.436;2023-09-07T05:36:17;18.50;73.55
78611;SHT30;67932;50.474;4.436;2023-09-07T05:38:45;18.47;73.84
78611;SHT30;67932;50.474;4.436;2023-09-07T05:41:11;18.49;73.86
78611;SHT30;67932;50.474;4.436;2023-09-07T05:43:38;18.54;74.25
78611;SHT30;67932;50.474;4.436;2023-09-07T05:46:04;18.56;73.56
78611;SHT30;67932;50.474;4.436;2023-09-07T05:48:30;18.59;74.04
78611;SHT30;67932;50.474;4.436;2023-09-07T05:50:58;18.59;73.61
78611;SHT30;67932;50.474;4.436;2023-09-07T05:53:24;18.56;74.02
78611;SHT30;67932;50.474;4.436;2023-09-07T05:55:53;18.52;73.91
78611;SHT30;67932;50.474;4.436;2023-09-07T05:58:19;18.54;74.05
78611;SHT30;67932;50.474;4.436;2023-09-07T06:00:45;18.54;74.04
78611;SHT30;67932;50.474;4.436;2023-09-07T06:03:12;18.59;73.68
78611;SHT30;67932;50.474;4.436;2023-09-07T06:05:38;18.67;73.56
78611;SHT30;67932;50.474;4.436;2023-09-07T06:08:06;18.67;73.77
78611;SHT30;67932;50.474;4.436;2023-09-07T06:10:33;18.83;73.85
78611;SHT30;67932;50.474;4.436;2023-09-07T06:13:00;18.83;73.68
78611;SHT30;67932;50.474;4.436;2023-09-07T06:15:26;18.87;73.50
78611;SHT30;67932;50.474;4.436;2023-09-07T06:17:53;18.88;73.22
78611;SHT30;67932;50.474;4.436;2023-09-07T06:20:20;18.97;72.96
78611;SHT30;67932;50.474;4.436;2023-09-07T06:22:46;19.03;72.90
78611;SHT30;67932;50.474;4.436;2023-09-07T06:25:13;19.11;72.99
78611;SHT30;67932;50.474;4.436;2023-09-07T06:27:39;19.18;73.06
78611;SHT30;67932;50.474;4.436;2023-09-07T06:30:09;19.18;73.39
78611;SHT30;67932;50.474;4.436;2023-09-07T06:32:35;19.22;73.43
78611;SHT30;67932;50.474;4.436;2023-09-07T06:35:02;19.31;73.47
78611;SHT30;67932;50.474;4.436;2023-09-07T06:37:28;19.38;73.70
78611;SHT30;67932;50.474;4.436;2023-09-07T06:39:54;19.39;73.10
78611;SHT30;67932;50.474;4.436;2023-09-07T06:42:20;19.49;74.21
78611;SHT30;67932;50.474;4.436;2023-09-07T06:44:47;19.58;71.59
78611;SHT30;67932;50.474;4.436;2023-09-07T06:47:13;19.65;70.83
78611;SHT30;67932;50.474;4.436;2023-09-07T06:49:39;19.79;70.02
78611;SHT30;67932;50.474;4.436;2023-09-07T06:52:06;19.89;70.12
78611;SHT30;67932;50.474;4.436;2023-09-07T06:54:32;19.99;69.65
78611;SHT30;67932;50.474;4.436;2023-09-07T06:56:58;20.03;70.15
78611;SHT30;67932;50.474;4.436;2023-09-07T06:59:25;20.02;71.23
78611;SHT30;67932;50.474;4.436;2023-09-07T07:01:51;20.05;71.31
78611;SHT30;67932;50.474;4.436;2023-09-07T07:04:17;20.02;71.66
78611;SHT30;67932;50.474;4.436;2023-09-07T07:06:43;20.02;71.69
78611;SHT30;67932;50.474;4.436;2023-09-07T07:09:10;20.16;70.52
78611;SHT30;67932;50.474;4.436;2023-09-07T07:11:37;20.17;71.57
78611;SHT30;67932;50.474;4.436;2023-09-07T07:14:05;20.27;70.55
78611;SHT30;67932;50.474;4.436;2023-09-07T07:16:31;20.36;70.15
78611;SHT30;67932;50.474;4.436;2023-09-07T07:18:57;20.40;69.94
78611;SHT30;67932;50.474;4.436;2023-09-07T07:21:23;20.54;69.05
78611;SHT30;67932;50.474;4.436;2023-09-07T07:23:50;20.56;69.41
78611;SHT30;67932;50.474;4.436;2023-09-07T07:26:17;20.58;70.02
78611;SHT30;67932;50.474;4.436;2023-09-07T07:28:43;20.60;69.89
78611;SHT30;67932;50.474;4.436;2023-09-07T07:31:10;20.61;69.89
78611;SHT30;67932;50.474;4.436;2023-09-07T07:33:36;20.66;69.22
78611;SHT30;67932;50.474;4.436;2023-09-07T07:36:04;20.74;69.54
78611;SHT30;67932;50.474;4.436;2023-09-07T07:38:31;20.88;67.39
78611;SHT30;67932;50.474;4.436;2023-09-07T07:40:57;20.88;68.20
78611;SHT30;67932;50.474;4.436;2023-09-07T07:43:23;20.97;67.49
78611;SHT30;67932;50.474;4.436;2023-09-07T07:45:51;21.05;66.91
78611;SHT30;67932;50.474;4.436;2023-09-07T07:48:17;21.12;67.08
78611;SHT30;67932;50.474;4.436;2023-09-07T07:50:45;21.25;66.01
78611;SHT30;67932;50.474;4.436;2023-09-07T07:53:11;21.34;65.63
78611;SHT30;67932;50.474;4.436;2023-09-07T07:55:39;21.43;65.20
78611;SHT30;67932;50.474;4.436;2023-09-07T07:58:10;21.59;63.50
78611;SHT30;67932;50.474;4.436;2023-09-07T08:00:39;21.73;63.11
78611;SHT30;67932;50.474;4.436;2023-09-07T08:03:13;21.89;62.43
78611;SHT30;67932;50.474;4.436;2023-09-07T08:05:40;21.85;63.76
78611;SHT30;67932;50.474;4.436;2023-09-07T08:08:06;21.86;63.35
78611;SHT30;67932;50.474;4.436;2023-09-07T08:10:37;21.96;63.33
78611;SHT30;67932;50.474;4.436;2023-09-07T08:13:04;22.00;63.21
78611;SHT30;67932;50.474;4.436;2023-09-07T08:15:31;21.97;64.49
78611;SHT30;67932;50.474;4.436;2023-09-07T08:17:59;22.10;62.63
78611;SHT30;67932;50.474;4.436;2023-09-07T08:20:26;22.20;62.33
78611;SHT30;67932;50.474;4.436;2023-09-07T08:22:53;22.27;61.14
78611;SHT30;67932;50.474;4.436;2023-09-07T08:25:19;22.32;61.15
78611;SHT30;67932;50.474;4.436;2023-09-07T08:27:46;22.39;61.44
78611;SHT30;67932;50.474;4.436;2023-09-07T08:30:17;22.43;61.77
78611;SHT30;67932;50.474;4.436;2023-09-07T08:32:45;22.57;61.17
78611;SHT30;67932;50.474;4.436;2023-09-07T08:35:12;22.65;60.65
78611;SHT30;67932;50.474;4.436;2023-09-07T08:37:40;22.67;60.92
78611;SHT30;67932;50.474;4.436;2023-09-07T08:40:07;22.68;61.20
78611;SHT30;67932;50.474;4.436;2023-09-07T08:42:38;22.70;60.78
78611;SHT30;67932;50.474;4.436;2023-09-07T08:45:05;22.81;60.75
78611;SHT30;67932;50.474;4.436;2023-09-07T08:47:38;22.92;60.02
78611;SHT30;67932;50.474;4.436;2023-09-07T08:50:06;23.01;60.43
78611;SHT30;67932;50.474;4.436;2023-09-07T08:52:34;23.04;60.42
78611;SHT30;67932;50.474;4.436;2023-09-07T08:55:02;23.05;60.28
78611;SHT30;67932;50.474;4.436;2023-09-07T08:57:30;23.07;60.29
78611;SHT30;67932;50.474;4.436;2023-09-07T08:59:58;23.12;61.13
78611;SHT30;67932;50.474;4.436;2023-09-07T09:02:24;23.25;60.20
78611;SHT30;67932;50.474;4.436;2023-09-07T09:04:51;23.31;59.70
78611;SHT30;67932;50.474;4.436;2023-09-07T09:07:19;23.46;59.21
78611;SHT30;67932;50.474;4.436;2023-09-07T09:09:49;23.51;59.20
78611;SHT30;67932;50.474;4.436;2023-09-07T09:12:18;23.51;59.86
78611;SHT30;67932;50.474;4.436;2023-09-07T09:14:45;23.73;58.36
78611;SHT30;67932;50.474;4.436;2023-09-07T09:17:12;23.72;60.09
78611;SHT30;67932;50.474;4.436;2023-09-07T09:19:40;23.82;58.26
78611;SHT30;67932;50.474;4.436;2023-09-07T09:22:20;23.77;58.87
78611;SHT30;67932;50.474;4.436;2023-09-07T09:24:49;23.77;58.65
78611;SHT30;67932;50.474;4.436;2023-09-07T09:27:16;23.89;58.43
78611;SHT30;67932;50.474;4.436;2023-09-07T09:29:43;23.92;58.92
78611;SHT30;67932;50.474;4.436;2023-09-07T09:32:13;24.03;59.38
78611;SHT30;67932;50.474;4.436;2023-09-07T09:34:39;24.05;58.45
78611;SHT30;67932;50.474;4.436;2023-09-07T09:37:13;24.14;58.14
78611;SHT30;67932;50.474;4.436;2023-09-07T09:39:42;24.23;57.54
78611;SHT30;67932;50.474;4.436;2023-09-07T09:42:08;24.27;58.24
78611;SHT30;67932;50.474;4.436;2023-09-07T09:44:35;24.29;59.27
78611;SHT30;67932;50.474;4.436;2023-09-07T09:47:02;24.33;57.65
78611;SHT30;67932;50.474;4.436;2023-09-07T09:49:29;24.46;57.59
78611;SHT30;67932;50.474;4.436;2023-09-07T09:51:57;24.47;57.06
78611;SHT30;67932;50.474;4.436;2023-09-07T09:54:25;24.57;56.41
78611;SHT30;67932;50.474;4.436;2023-09-07T09:56:52;24.68;56.53
78611;SHT30;67932;50.474;4.436;2023-09-07T09:59:20;24.82;56.06
78611;SHT30;67932;50.474;4.436;2023-09-07T10:01:48;24.87;56.43
78611;SHT30;67932;50.474;4.436;2023-09-07T10:04:18;24.82;56.35
78611;SHT30;67932;50.474;4.436;2023-09-07T10:07:11;24.90;55.82
78611;SHT30;67932;50.474;4.436;2023-09-07T10:09:38;24.92;55.55
78611;SHT30;67932;50.474;4.436;2023-09-07T10:12:11;25.19;54.47
78611;SHT30;67932;50.474;4.436;2023-09-07T10:14:41;25.29;54.03
78611;SHT30;67932;50.474;4.436;2023-09-07T10:17:08;25.26;54.06
78611;SHT30;67932;50.474;4.436;2023-09-07T10:19:36;25.36;53.33
78611;SHT30;67932;50.474;4.436;2023-09-07T10:22:04;25.42;54.02
78611;SHT30;67932;50.474;4.436;2023-09-07T10:24:34;25.65;52.32
78611;SHT30;67932;50.474;4.436;2023-09-07T10:27:07;25.62;52.42
78611;SHT30;67932;50.474;4.436;2023-09-07T10:29:50;25.58;52.96
78611;SHT30;67932;50.474;4.436;2023-09-07T10:32:20;25.82;51.20
78611;SHT30;67932;50.474;4.436;2023-09-07T10:34:46;26.07;51.90
78611;SHT30;67932;50.474;4.436;2023-09-07T10:37:13;26.16;51.72
78611;SHT30;67932;50.474;4.436;2023-09-07T10:39:41;26.09;51.52
78611;SHT30;67932;50.474;4.436;2023-09-07T10:42:24;26.00;52.85
78611;SHT30;67932;50.474;4.436;2023-09-07T10:45:12;26.19;49.50
78611;SHT30;67932;50.474;4.436;2023-09-07T10:47:44;26.16;48.90
78611;SHT30;67932;50.474;4.436;2023-09-07T10:50:12;26.07;49.83
78611;SHT30;67932;50.474;4.436;2023-09-07T10:52:42;26.13;50.30
78611;SHT30;67932;50.474;4.436;2023-09-07T10:55:11;26.03;50.95
78611;SHT30;67932;50.474;4.436;2023-09-07T10:57:45;26.19;49.49
78611;SHT30;67932;50.474;4.436;2023-09-07T11:00:12;26.27;50.17
78611;SHT30;67932;50.474;4.436;2023-09-07T11:02:40;26.30;50.48
78611;SHT30;67932;50.474;4.436;2023-09-07T11:05:07;26.40;50.25
78611;SHT30;67932;50.474;4.436;2023-09-07T11:07:34;26.40;49.51
78611;SHT30;67932;50.474;4.436;2023-09-07T11:10:01;26.40;50.80
78611;SHT30;67932;50.474;4.436;2023-09-07T11:12:30;26.55;49.33
78611;SHT30;67932;50.474;4.436;2023-09-07T11:15:03;26.91;48.48
78611;SHT30;67932;50.474;4.436;2023-09-07T11:17:30;26.84;48.41
78611;SHT30;67932;50.474;4.436;2023-09-07T11:19:57;27.05;48.56
78611;SHT30;67932;50.474;4.436;2023-09-07T11:22:23;27.46;48.45
78611;SHT30;67932;50.474;4.436;2023-09-07T11:24:49;27.28;48.53
78611;SHT30;67932;50.474;4.436;2023-09-07T11:27:19;27.69;47.00
78611;SHT30;67932;50.474;4.436;2023-09-07T11:29:51;27.82;48.50
78611;SHT30;67932;50.474;4.436;2023-09-07T11:32:18;27.46;48.21
78611;SHT30;67932;50.474;4.436;2023-09-07T11:34:51;27.24;48.78
78611;SHT30;67932;50.474;4.436;2023-09-07T11:37:25;27.15;49.11
78611;SHT30;67932;50.474;4.436;2023-09-07T11:39:52;27.12;50.32
78611;SHT30;67932;50.474;4.436;2023-09-07T11:42:18;27.12;49.27
78611;SHT30;67932;50.474;4.436;2023-09-07T11:44:44;27.25;48.72
78611;SHT30;67932;50.474;4.436;2023-09-07T11:47:10;27.29;48.33
78611;SHT30;67932;50.474;4.436;2023-09-07T11:49:37;27.96;47.15
78611;SHT30;67932;50.474;4.436;2023-09-07T11:52:03;28.23;46.39
78611;SHT30;67932;50.474;4.436;2023-09-07T11:54:29;28.50;46.64
78611;SHT30;67932;50.474;4.436;2023-09-07T11:56:56;28.63;46.07
78611;SHT30;67932;50.474;4.436;2023-09-07T11:59:22;28.14;46.32
78611;SHT30;67932;50.474;4.436;2023-09-07T12:01:48;28.16;47.33
78611;SHT30;67932;50.474;4.436;2023-09-07T12:04:15;27.83;46.66
78611;SHT30;67932;50.474;4.436;2023-09-07T12:06:41;27.62;47.71
78611;SHT30;67932;50.474;4.436;2023-09-07T12:09:08;27.49;47.99
78611;SHT30;67932;50.474;4.436;2023-09-07T12:11:35;27.46;47.76
78611;SHT30;67932;50.474;4.436;2023-09-07T12:14:02;27.58;47.48
78611;SHT30;67932;50.474;4.436;2023-09-07T12:16:29;27.45;47.54
78611;SHT30;67932;50.474;4.436;2023-09-07T12:18:56;27.50;48.20
78611;SHT30;67932;50.474;4.436;2023-09-07T12:21:23;27.58;47.34
78611;SHT30;67932;50.474;4.436;2023-09-07T12:23:49;27.59;46.64
78611;SHT30;67932;50.474;4.436;2023-09-07T12:26:15;27.48;47.27
78611;SHT30;67932;50.474;4.436;2023-09-07T12:28:47;27.49;46.97
78611;SHT30;67932;50.474;4.436;2023-09-07T12:31:14;27.45;45.93
78611;SHT30;67932;50.474;4.436;2023-09-07T12:33:41;27.43;46.86
78611;SHT30;67932;50.474;4.436;2023-09-07T12:36:07;27.50;47.59
78611;SHT30;67932;50.474;4.436;2023-09-07T12:38:38;27.46;48.62
78611;SHT30;67932;50.474;4.436;2023-09-07T12:41:04;27.50;48.91
78611;SHT30;67932;50.474;4.436;2023-09-07T12:43:31;27.53;47.58
78611;SHT30;67932;50.474;4.436;2023-09-07T12:45:58;27.55;47.77
78611;SHT30;67932;50.474;4.436;2023-09-07T12:48:25;27.65;49.47
78611;SHT30;67932;50.474;4.436;2023-09-07T12:50:51;27.82;48.04
78611;SHT30;67932;50.474;4.436;2023-09-07T12:53:17;27.90;47.79
78611;SHT30;67932;50.474;4.436;2023-09-07T12:55:45;27.89;46.96
78611;SHT30;67932;50.474;4.436;2023-09-07T12:58:11;27.86;47.01
78611;SHT30;67932;50.474;4.436;2023-09-07T13:00:38;27.99;46.78
78611;SHT30;67932;50.474;4.436;2023-09-07T13:03:04;28.03;46.89
78611;SHT30;67932;50.474;4.436;2023-09-07T13:05:30;28.18;47.17
78611;SHT30;67932;50.474;4.436;2023-09-07T13:07:57;28.34;47.11
78611;SHT30;67932;50.474;4.436;2023-09-07T13:10:25;28.58;45.69
78611;SHT30;67932;50.474;4.436;2023-09-07T13:12:51;28.71;46.11
78611;SHT30;67932;50.474;4.436;2023-09-07T13:15:17;28.94;45.88
78611;SHT30;67932;50.474;4.436;2023-09-07T13:17:44;28.85;46.51
78611;SHT30;67932;50.474;4.436;2023-09-07T13:20:13;28.92;44.75
78611;SHT30;67932;50.474;4.436;2023-09-07T13:22:46;29.16;45.08
78611;SHT30;67932;50.474;4.436;2023-09-07T13:25:13;29.56;44.53
78611;SHT30;67932;50.474;4.436;2023-09-07T13:27:39;31.46;41.39
78611;SHT30;67932;50.474;4.436;2023-09-07T13:30:06;32.97;38.49
78611;SHT30;67932;50.474;4.436;2023-09-07T13:32:39;34.40;35.04
78611;SHT30;67932;50.474;4.436;2023-09-07T13:35:06;35.34;34.25
78611;SHT30;67932;50.474;4.436;2023-09-07T13:37:33;36.29;32.74
78611;SHT30;67932;50.474;4.436;2023-09-07T13:40:02;36.23;32.17
78611;SHT30;67932;50.474;4.436;2023-09-07T13:42:29;36.77;32.09
78611;SHT30;67932;50.474;4.436;2023-09-07T13:44:55;35.84;32.63
78611;SHT30;67932;50.474;4.436;2023-09-07T13:47:22;35.74;33.21
78611;SHT30;67932;50.474;4.436;2023-09-07T13:49:49;37.78;31.26
78611;SHT30;67932;50.474;4.436;2023-09-07T13:52:15;37.81;29.53
78611;SHT30;67932;50.474;4.436;2023-09-07T13:54:42;38.45;28.37
78611;SHT30;67932;50.474;4.436;2023-09-07T13:57:11;35.07;34.89
78611;SHT30;67932;50.474;4.436;2023-09-07T13:59:38;36.08;31.17
78611;SHT30;67932;50.474;4.436;2023-09-07T14:02:05;36.35;30.98
78611;SHT30;67932;50.474;4.436;2023-09-07T14:04:31;35.72;33.15
78611;SHT30;67932;50.474;4.436;2023-09-07T14:06:58;35.54;31.35
78611;SHT30;67932;50.474;4.436;2023-09-07T14:09:24;36.60;31.37
78611;SHT30;67932;50.474;4.436;2023-09-07T14:11:51;36.91;31.95
78611;SHT30;67932;50.474;4.436;2023-09-07T14:14:38;37.86;30.34
78611;SHT30;67932;50.474;4.436;2023-09-07T14:17:17;38.15;30.36
78611;SHT30;67932;50.474;4.436;2023-09-07T14:19:44;37.55;30.38
78611;SHT30;67932;50.474;4.436;2023-09-07T14:22:12;37.84;30.75
78611;SHT30;67932;50.474;4.436;2023-09-07T14:24:39;38.15;28.72
78611;SHT30;67932;50.474;4.436;2023-09-07T14:27:05;38.18;29.07
78611;SHT30;67932;50.474;4.436;2023-09-07T14:29:32;38.77;28.26
78611;SHT30;67932;50.474;4.436;2023-09-07T14:31:58;38.32;29.14
78611;SHT30;67932;50.474;4.436;2023-09-07T14:34:24;38.04;30.78
78611;SHT30;67932;50.474;4.436;2023-09-07T14:36:52;38.29;29.22
78611;SHT30;67932;50.474;4.436;2023-09-07T14:39:18;36.83;32.04
78611;SHT30;67932;50.474;4.436;2023-09-07T14:41:50;37.81;29.73
78611;SHT30;67932;50.474;4.436;2023-09-07T14:44:19;38.15;29.24
78611;SHT30;67932;50.474;4.436;2023-09-07T14:46:45;37.93;29.78
78611;SHT30;67932;50.474;4.436;2023-09-07T14:49:15;38.12;29.31
78611;SHT30;67932;50.474;4.436;2023-09-07T14:51:44;38.12;28.91
78611;SHT30;67932;50.474;4.436;2023-09-07T14:54:11;38.46;29.26
78611;SHT30;67932;50.474;4.436;2023-09-07T14:56:38;38.55;27.98
78611;SHT30;67932;50.474;4.436;2023-09-07T14:59:05;36.79;29.59
78611;SHT30;67932;50.474;4.436;2023-09-07T15:01:32;37.96;29.66
78611;SHT30;67932;50.474;4.436;2023-09-07T15:03:58;38.09;30.67
78611;SHT30;67932;50.474;4.436;2023-09-07T15:06:25;38.35;29.86
78611;SHT30;67932;50.474;4.436;2023-09-07T15:08:51;38.77;28.69
78611;SHT30;67932;50.474;4.436;2023-09-07T15:11:17;37.61;31.46
78611;SHT30;67932;50.474;4.436;2023-09-07T15:13:44;37.99;30.42
78611;SHT30;67932;50.474;4.436;2023-09-07T15:16:11;38.08;29.40
78611;SHT30;67932;50.474;4.436;2023-09-07T15:18:37;38.15;30.03
78611;SHT30;67932;50.474;4.436;2023-09-07T15:21:04;38.37;28.59
78611;SHT30;67932;50.474;4.436;2023-09-07T15:23:30;38.16;29.99
78611;SHT30;67932;50.474;4.436;2023-09-07T15:25:56;38.29;27.87
78611;SHT30;67932;50.474;4.436;2023-09-07T15:28:22;37.76;30.03
78611;SHT30;67932;50.474;4.436;2023-09-07T15:30:49;37.79;30.23